createdAt,value
2019-03-02T00:36:25.063Z,17.07
2019-03-02T00:38:53.867Z,16.83
2019-03-02T00:41:22.311Z,15.33
2019-03-02T00:43:50.752Z,15.60
2019-03-02T00:49:47.908Z,18.13
2019-03-02T00:52:16.351Z,19.20
2019-03-02T00:58:13.394Z,18.23
2019-03-02T01:00:42.607Z,17.37
2019-03-02T01:03:12.057Z,18.67
2019-03-02T01:05:41.552Z,16.83
2019-03-02T01:08:10.014Z,17.30
2019-03-02T01:10:38.446Z,15.90
2019-03-02T01:13:06.950Z,18.03
2019-03-02T01:15:35.506Z,16.60
2019-03-02T01:18:06.674Z,18.40
2019-03-02T01:20:34.168Z,19.97
2019-03-02T01:23:02.639Z,17.73
2019-03-02T01:25:31.072Z,20.70
2019-03-02T01:31:28.350Z,19.57
2019-03-02T01:33:56.822Z,20.67
2019-03-02T01:36:28.654Z,19.53
2019-03-02T01:42:12.718Z,19.60
2019-03-02T01:44:41.183Z,22.20
2019-03-02T01:47:12.553Z,20.93
2019-03-02T01:49:39.777Z,17.77
2019-03-02T01:52:08.573Z,21.03
2019-03-02T01:54:37.537Z,20.77
2019-03-02T02:00:34.939Z,19.90
2019-03-02T02:03:03.812Z,19.57
2019-03-02T02:09:13.842Z,22.23
2019-03-02T02:11:42.914Z,21.83
2019-03-02T02:14:11.358Z,22.43
2019-03-02T02:16:41.827Z,22.53
2019-03-02T02:19:09.984Z,24.47
2019-03-02T02:21:38.423Z,27.27
2019-03-02T02:24:06.952Z,26.10
2019-03-02T02:26:35.382Z,26.47
2019-03-02T02:32:32.256Z,23.50
2019-03-02T02:35:02.623Z,23.50
2019-03-02T02:37:32.186Z,26.43
2019-03-02T02:43:05.527Z,23.17
2019-03-02T02:45:34.199Z,27.33
2019-03-02T02:51:48.956Z,23.13
2019-03-02T02:54:22.853Z,24.33
2019-03-02T02:56:44.938Z,24.70
2019-03-02T02:59:13.744Z,24.73
2019-03-02T03:01:42.558Z,26.33
2019-03-02T03:04:11.049Z,25.87
2019-03-02T03:06:39.703Z,25.83
2019-03-02T03:09:11.605Z,27.63
2019-03-02T03:15:10.415Z,22.00
2019-03-02T03:17:38.995Z,26.23
2019-03-02T03:20:10.418Z,25.97
2019-03-02T03:26:07.535Z,23.73
2019-03-02T03:28:35.991Z,25.17
2019-03-02T03:31:04.425Z,28.43
2019-03-02T03:33:42.009Z,22.80
2019-03-02T03:39:31.256Z,25.27
2019-03-02T03:41:59.867Z,20.80
2019-03-02T03:44:28.641Z,21.13
2019-03-02T03:47:00.652Z,23.83
2019-03-02T03:49:30.102Z,20.90
2019-03-02T03:51:57.483Z,21.17
2019-03-02T03:54:25.916Z,21.10
2019-03-02T04:00:23.590Z,25.00
2019-03-02T04:02:52.917Z,21.67
2019-03-02T04:05:21.351Z,19.90
2019-03-02T04:07:51.436Z,21.27
2019-03-02T04:10:25.579Z,20.57
2019-03-02T04:12:50.435Z,21.00
2019-03-02T04:15:19.546Z,20.13
2019-03-02T04:17:48.172Z,20.17
2019-03-02T04:20:25.647Z,21.10
2019-03-02T04:22:55.975Z,19.33
2019-03-02T04:25:24.399Z,21.87
2019-03-02T04:27:54.162Z,20.10
2019-03-02T04:30:30.533Z,18.77
2019-03-02T04:32:53.213Z,19.97
2019-03-02T04:35:21.701Z,19.53
2019-03-02T04:37:50.587Z,19.50
2019-03-02T04:40:23.287Z,20.87
2019-03-02T04:42:50.193Z,20.57
2019-03-02T04:45:19.376Z,22.20
2019-03-02T04:47:48.159Z,18.90
2019-03-02T04:50:16.605Z,20.27
2019-03-02T04:52:46.641Z,20.67
2019-03-02T04:55:15.490Z,18.50
2019-03-02T04:57:43.928Z,18.87
2019-03-02T05:03:41.476Z,20.47
2019-03-02T05:06:09.915Z,19.17
2019-03-02T05:08:41.151Z,22.30
2019-03-02T05:14:49.945Z,20.77
2019-03-02T05:17:18.450Z,18.20
2019-03-02T05:19:47.218Z,21.93
2019-03-02T05:22:18.820Z,21.37
2019-03-02T05:24:46.166Z,20.23
2019-03-02T05:27:14.606Z,19.73
2019-03-02T05:29:43.414Z,22.40
2019-03-02T05:32:12.522Z,23.90
2019-03-02T05:34:42.021Z,22.87
2019-03-02T05:37:10.468Z,24.50
2019-03-02T05:39:38.900Z,19.23
2019-03-02T05:45:13.569Z,19.53
2019-03-02T05:51:11.031Z,22.27
2019-03-02T05:53:39.503Z,19.30
2019-03-02T05:59:48.978Z,21.83
2019-03-02T06:05:58.313Z,21.13
2019-03-02T06:12:11.819Z,19.50
2019-03-02T06:18:19.762Z,22.10
2019-03-02T06:24:29.363Z,23.17
2019-03-02T06:30:40.644Z,23.93
2019-03-02T06:36:50.155Z,23.53
2019-03-02T06:42:59.797Z,21.23
2019-03-02T06:45:28.235Z,22.53
2019-03-02T06:51:25.015Z,22.67
2019-03-02T06:53:53.448Z,22.17
2019-03-02T06:59:50.975Z,22.03
2019-03-02T07:05:47.938Z,21.57
2019-03-02T07:11:21.242Z,22.17
2019-03-02T07:13:49.714Z,22.80
2019-03-02T07:16:20.078Z,21.03
2019-03-02T07:22:17.979Z,21.23
2019-03-02T07:24:46.958Z,21.77
2019-03-02T07:27:15.393Z,22.07
2019-03-02T07:29:43.823Z,24.17
2019-03-02T07:35:41.096Z,21.13
2019-03-02T07:38:09.532Z,20.07
2019-03-02T07:40:41.159Z,20.80
2019-03-02T07:43:09.710Z,20.83
2019-03-02T07:45:38.648Z,19.53
2019-03-02T07:48:07.286Z,20.13
2019-03-02T07:54:16.795Z,19.53
2019-03-02T07:56:45.231Z,20.43
2019-03-02T08:02:42.591Z,18.53
2019-03-02T08:05:14.641Z,19.30
2019-03-02T08:07:42.123Z,19.90
2019-03-02T08:10:12.099Z,19.13
2019-03-02T08:12:40.667Z,17.43
2019-03-02T08:15:14.796Z,17.87
2019-03-02T08:17:45.590Z,17.30
2019-03-02T08:20:16.555Z,18.43
2019-03-02T08:22:46.324Z,20.03
2019-03-02T08:28:45.802Z,19.37
2019-03-02T08:31:14.487Z,17.90
2019-03-02T08:33:45.907Z,19.90
2019-03-02T08:36:16.798Z,19.07
2019-03-02T08:38:43.463Z,18.17
2019-03-02T08:41:11.903Z,17.93
2019-03-02T08:43:40.340Z,18.80
2019-03-02T08:46:09.058Z,24.27
2019-03-02T08:52:19.205Z,21.47
2019-03-02T08:58:29.090Z,18.87
2019-03-02T09:04:38.716Z,20.53
2019-03-02T09:07:07.754Z,20.30
2019-03-02T09:09:37.910Z,16.77
2019-03-02T09:12:06.670Z,19.10
2019-03-02T09:14:35.114Z,19.10
2019-03-02T09:20:35.691Z,18.57
2019-03-02T09:23:02.803Z,19.13
2019-03-02T09:29:12.568Z,20.43
2019-03-02T09:31:42.285Z,22.00
2019-03-02T09:34:10.720Z,18.17
2019-03-02T09:40:16.269Z,19.60
2019-03-02T09:42:44.950Z,20.00
2019-03-02T09:45:17.987Z,19.90
2019-03-02T09:50:50.923Z,19.97
2019-03-02T09:56:48.442Z,18.23
2019-03-02T09:59:16.934Z,21.43
2019-03-02T10:01:45.359Z,18.07
2019-03-02T10:04:13.794Z,20.03
2019-03-02T10:10:13.706Z,16.00
2019-03-02T10:12:42.255Z,16.83
2019-03-02T10:18:51.958Z,17.63
2019-03-02T10:25:01.784Z,16.23
2019-03-02T10:31:13.288Z,19.37
2019-03-02T10:37:22.521Z,15.60
2019-03-02T10:39:50.951Z,17.43
2019-03-02T10:42:19.396Z,18.17
2019-03-02T10:44:47.962Z,14.70
2019-03-02T10:50:59.166Z,13.50
2019-03-02T10:53:27.960Z,13.57
2019-03-02T10:59:25.319Z,13.13
2019-03-02T11:01:53.751Z,14.73
2019-03-02T11:04:33.290Z,13.57
2019-03-02T11:07:05.059Z,16.67
2019-03-02T11:09:36.391Z,14.60
2019-03-02T11:12:08.008Z,16.67
2019-03-02T11:18:21.883Z,13.63
2019-03-02T11:24:48.100Z,15.00
2019-03-02T11:27:20.787Z,14.30
2019-03-02T11:29:59.622Z,14.20
2019-03-02T11:32:29.703Z,13.63
2019-03-02T11:35:19.326Z,16.20
2019-03-02T11:37:49.595Z,14.27
2019-03-02T11:40:36.061Z,12.83
2019-03-02T11:43:16.231Z,13.23
2019-03-02T11:46:03.670Z,12.60
2019-03-02T11:48:33.835Z,13.93
2019-03-02T11:54:32.674Z,12.87
2019-03-02T11:57:07.790Z,11.80
2019-03-02T11:59:37.660Z,12.77
2019-03-02T12:02:15.642Z,14.53
2019-03-02T12:04:57.486Z,14.30
2019-03-02T12:11:01.794Z,15.10
2019-03-02T12:13:34.996Z,12.70
2019-03-02T12:16:11.252Z,12.40
2019-03-02T12:18:54.169Z,13.73
2019-03-02T12:25:09.771Z,14.27
2019-03-02T12:27:45.720Z,12.70
2019-03-02T12:33:44.064Z,12.33
2019-03-02T12:36:29.286Z,13.03
2019-03-02T12:39:08.163Z,12.60
2019-03-02T12:41:55.224Z,12.20
2019-03-02T12:44:37.262Z,13.30
2019-03-02T12:47:07.435Z,13.17
2019-03-02T12:49:39.987Z,13.07
2019-03-02T12:52:24.742Z,14.00
2019-03-02T12:55:11.012Z,15.17
2019-03-02T12:57:53.333Z,14.10
2019-03-02T13:00:32.594Z,13.97
2019-03-02T13:06:32.248Z,11.90
2019-03-02T13:12:32.017Z,13.17
2019-03-02T13:18:34.279Z,11.93
2019-03-02T13:21:04.383Z,12.60
2019-03-02T13:27:25.935Z,12.17
2019-03-02T13:29:56.158Z,12.70
2019-03-02T13:32:35.197Z,14.20
2019-03-02T13:35:23.375Z,12.23
2019-03-02T13:38:00.592Z,12.80
2019-03-02T13:40:39.313Z,11.93
2019-03-02T13:46:53.570Z,14.37
2019-03-02T13:49:23.755Z,15.60
2019-03-02T13:52:03.189Z,11.87
2019-03-02T13:54:48.243Z,11.57
2019-03-02T14:01:08.562Z,11.60
2019-03-02T14:03:38.643Z,15.67
2019-03-02T14:09:53.782Z,12.73
2019-03-02T14:15:59.475Z,12.37
2019-03-02T14:21:56.565Z,13.30
2019-03-02T14:28:02.099Z,15.60
2019-03-02T14:34:07.175Z,14.90
2019-03-02T14:36:41.951Z,16.37
2019-03-02T14:42:53.211Z,14.00
2019-03-02T14:49:07.460Z,10.10
2019-03-02T14:51:56.728Z,9.20
2019-03-02T14:58:00.254Z,9.07
2019-03-02T15:04:07.630Z,9.73
2019-03-02T15:10:12.915Z,9.77
2019-03-02T15:12:52.510Z,9.90
2019-03-02T15:19:06.579Z,10.00
2019-03-02T15:25:17.528Z,10.70
2019-03-02T15:31:35.060Z,9.30
2019-03-02T15:34:20.267Z,8.83
2019-03-02T15:36:56.707Z,9.50
2019-03-02T15:43:07.975Z,8.37
2019-03-02T15:49:36.149Z,9.50
2019-03-02T15:52:19.131Z,8.93
2019-03-02T15:58:30.320Z,10.43
2019-03-02T16:01:03.459Z,9.83
2019-03-02T16:03:45.529Z,9.13
2019-03-02T16:09:56.722Z,9.90
2019-03-02T16:12:29.796Z,10.60
2019-03-02T16:15:16.500Z,10.30
2019-03-02T16:17:55.323Z,10.27
2019-03-02T16:20:28.230Z,10.07
2019-03-02T16:26:36.007Z,10.40
2019-03-02T16:29:06.452Z,10.17
2019-03-02T16:35:11.026Z,10.57
2019-03-02T16:41:38.914Z,12.00
2019-03-02T16:47:51.794Z,10.47
2019-03-02T16:53:58.389Z,9.77
2019-03-02T16:56:29.047Z,10.07
2019-03-02T16:59:05.034Z,10.50
2019-03-02T17:05:16.030Z,10.47
2019-03-02T17:07:55.051Z,10.07
2019-03-02T17:10:38.882Z,10.00
2019-03-02T17:13:09.090Z,9.37
2019-03-02T17:15:58.813Z,11.17
2019-03-02T17:18:44.789Z,11.67
2019-03-02T17:24:37.708Z,11.03
2019-03-02T17:30:37.367Z,10.20
2019-03-02T17:33:16.751Z,8.80
2019-03-02T17:39:30.647Z,8.50
2019-03-02T17:42:00.782Z,7.90
2019-03-02T17:44:30.852Z,8.53
2019-03-02T17:47:07.077Z,7.40
2019-03-02T17:49:44.689Z,7.17
2019-03-02T17:52:28.643Z,7.37
2019-03-02T17:55:10.758Z,7.53
2019-03-02T17:57:59.350Z,7.40
2019-03-02T18:00:41.512Z,7.10
2019-03-02T18:06:59.390Z,7.27
2019-03-02T18:09:38.886Z,6.83
2019-03-02T18:12:11.915Z,7.30
2019-03-02T18:14:45.294Z,6.70
2019-03-02T18:17:24.122Z,6.50
2019-03-02T18:19:52.577Z,6.67
2019-03-02T18:22:21.542Z,6.43
2019-03-02T18:24:50.547Z,6.97
2019-03-02T18:30:47.675Z,9.03
2019-03-02T18:33:20.582Z,9.47
2019-03-02T18:39:30.138Z,6.60
2019-03-02T18:45:40.643Z,6.90
2019-03-02T18:48:11.458Z,6.30
2019-03-02T18:50:42.197Z,7.83
2019-03-02T18:53:10.846Z,7.13
2019-03-02T18:55:39.279Z,7.30
2019-03-02T19:01:36.691Z,9.20
2019-03-02T19:04:05.986Z,6.17
2019-03-02T19:06:34.654Z,6.70
2019-03-02T19:09:03.556Z,8.47
2019-03-02T19:11:32.367Z,6.27
2019-03-02T19:17:46.663Z,6.47
2019-03-02T19:23:56.734Z,9.50
2019-03-02T19:26:25.582Z,6.50
2019-03-02T19:28:54.006Z,6.87
2019-03-02T19:34:58.460Z,6.73
2019-03-02T19:37:27.007Z,8.77
2019-03-02T19:39:55.444Z,7.07
2019-03-02T19:45:52.594Z,6.33
2019-03-02T19:51:50.555Z,6.63
2019-03-02T19:54:19.006Z,7.30
2019-03-02T20:00:30.626Z,7.70
2019-03-02T20:06:40.116Z,6.47
2019-03-02T20:12:49.716Z,9.67
2019-03-02T20:15:20.954Z,7.50
2019-03-02T20:17:49.456Z,8.30
2019-03-02T20:20:18.777Z,8.23
2019-03-02T20:22:47.283Z,7.93
2019-03-02T20:28:19.871Z,8.90
2019-03-02T20:30:48.502Z,10.03
2019-03-02T20:33:16.930Z,8.30
2019-03-02T20:35:45.363Z,7.83
2019-03-02T20:38:13.971Z,10.77
2019-03-02T20:40:42.462Z,7.57
2019-03-02T20:43:10.886Z,9.07
2019-03-02T20:45:39.515Z,9.30
2019-03-02T20:48:07.957Z,7.00
2019-03-02T20:50:36.503Z,8.00
2019-03-02T20:53:04.964Z,7.30
2019-03-02T20:55:33.399Z,8.17
2019-03-02T21:01:30.990Z,7.70
2019-03-02T21:03:59.627Z,10.13
2019-03-02T21:06:28.190Z,9.20
2019-03-02T21:08:56.615Z,8.40
2019-03-02T21:11:25.089Z,8.73
2019-03-02T21:13:53.505Z,9.27
2019-03-02T21:19:51.202Z,7.90
2019-03-02T21:22:20.095Z,8.07
2019-03-02T21:24:48.528Z,7.67
2019-03-02T21:27:16.963Z,7.53
2019-03-02T21:29:45.431Z,8.10
2019-03-02T21:32:14.203Z,9.57
2019-03-02T21:34:42.625Z,9.13
2019-03-02T21:37:11.407Z,7.87
2019-03-02T21:43:21.907Z,7.40
2019-03-02T21:49:31.799Z,8.90
2019-03-02T21:52:00.231Z,7.13
2019-03-02T21:54:28.664Z,8.53
2019-03-02T21:56:57.237Z,8.43
2019-03-02T21:59:25.674Z,8.97
2019-03-02T22:01:54.103Z,6.97
2019-03-02T22:04:22.868Z,7.40
2019-03-02T22:10:44.487Z,8.30
2019-03-02T22:13:12.921Z,7.03
2019-03-02T22:15:41.367Z,5.87
2019-03-02T22:18:09.969Z,5.90
2019-03-02T22:20:38.407Z,6.30
2019-03-02T22:23:06.910Z,5.47
2019-03-02T22:29:04.171Z,5.50
2019-03-02T22:31:33.450Z,5.70
2019-03-02T22:34:02.410Z,7.20
2019-03-02T22:36:31.398Z,5.30
2019-03-02T22:39:00.506Z,7.03
2019-03-02T22:41:29.410Z,5.47
2019-03-02T22:43:58.494Z,4.43
2019-03-02T22:46:27.816Z,5.13
2019-03-02T22:48:56.856Z,4.73
2019-03-02T22:51:26.282Z,4.37
2019-03-02T22:53:55.722Z,4.30
2019-03-02T23:00:22.806Z,4.30
2019-03-02T23:02:50.230Z,4.20
2019-03-02T23:05:19.015Z,3.70
2019-03-02T23:07:47.470Z,3.83
2019-03-02T23:10:16.238Z,3.60
2019-03-02T23:12:44.908Z,3.67
2019-03-02T23:15:18.540Z,4.10
2019-03-02T23:17:46.971Z,5.10
2019-03-02T23:23:43.731Z,4.50
2019-03-02T23:26:12.235Z,4.10
2019-03-02T23:28:40.706Z,3.93
2019-03-02T23:31:09.380Z,4.23
2019-03-02T23:37:06.431Z,4.13
2019-03-02T23:39:35.045Z,3.87
2019-03-02T23:45:45.178Z,3.80
2019-03-02T23:48:13.612Z,3.77
2019-03-02T23:50:42.038Z,4.50
2019-03-02T23:53:10.498Z,3.77
2019-03-02T23:58:56.158Z,3.80
